Time;durP1;ratioP1;P1;durP2;ratioP2;P2;SDS_P1;SDS_P2;PMS_P1;PMS_P2;Temp;Humidity;BMP_temperature;BMP_pressure;BME280_temperature;BME280_humidity;BME280_pressure;Samples;Min_cycle;Max_cycle;Signal;HPM_P1;HPM_P2
2021/04/10 00:01:51;;;;;;;4.70;2.37;;;;;;;11.74;52.75;98292.13;6170538;22;104078;-80
2021/04/10 00:04:18;;;;;;;3.40;2.07;;;;;;;11.71;52.69;98292.38;6172137;22;104811;-81
2021/04/10 00:06:46;;;;;;;3.23;2.30;;;;;;;11.76;52.21;98284.91;6170396;22;102899;-81
2021/04/10 00:09:13;;;;;;;5.57;3.00;;;;;;;11.67;52.21;98275.06;6172672;22;102576;-81
2021/04/10 00:11:40;;;;;;;4.37;2.63;;;;;;;11.63;52.38;98281.56;6145288;22;106005;-82
2021/04/10 00:14:09;;;;;;;2.97;2.40;;;;;;;11.65;52.65;98287.56;6172605;22;104992;-81
2021/04/10 00:16:36;;;;;;;3.13;2.13;;;;;;;11.62;52.43;98278.09;6172364;22;102835;-80
2021/04/10 00:19:04;;;;;;;5.07;2.43;;;;;;;11.64;52.18;98275.31;6172656;22;102845;-81
2021/04/10 00:21:32;;;;;;;3.73;2.43;;;;;;;11.58;52.35;98281.13;6170769;22;105394;-81
2021/04/10 00:23:59;;;;;;;5.87;2.93;;;;;;;11.41;52.85;98279.88;6172488;22;104039;-81
2021/04/10 00:26:26;;;;;;;4.67;2.50;;;;;;;11.42;52.75;98291.28;6170852;22;102794;-81
2021/04/10 00:28:53;;;;;;;4.23;2.43;;;;;;;11.46;52.59;98303.28;6172833;22;103382;-82
2021/04/10 00:31:21;;;;;;;3.33;2.47;;;;;;;11.42;52.83;98301.88;6171618;22;103770;-81
2021/04/10 00:33:48;;;;;;;6.03;2.77;;;;;;;11.45;52.72;98307.72;6172480;22;103653;-82
2021/04/10 00:36:16;;;;;;;4.17;1.87;;;;;;;11.36;53.78;98305.00;6171824;22;102520;-80
2021/04/10 00:38:43;;;;;;;6.90;3.00;;;;;;;11.11;54.15;98298.25;6172176;22;102608;-82
2021/04/10 00:41:12;;;;;;;5.37;2.70;;;;;;;11.04;54.97;98297.88;6172210;22;104309;-81
2021/04/10 00:43:40;;;;;;;4.47;2.57;;;;;;;10.98;54.42;98298.38;6170977;22;103808;-81
2021/04/10 00:46:08;;;;;;;2.97;1.90;;;;;;;11.24;54.61;98287.50;6171560;22;102513;-81
2021/04/10 00:48:35;;;;;;;6.07;2.37;;;;;;;11.25;54.15;98283.91;6172094;22;102964;-81
2021/04/10 00:51:03;;;;;;;3.50;2.37;;;;;;;11.23;54.81;98285.84;6170382;22;104759;-82
2021/04/10 00:53:32;;;;;;;3.90;2.33;;;;;;;11.16;55.31;98274.06;6171131;22;104725;-81
2021/04/10 00:56:03;;;;;;;4.53;2.10;;;;;;;11.23;54.78;98272.63;6172186;22;102946;-81
2021/04/10 00:58:31;;;;;;;3.77;2.40;;;;;;;11.17;55.06;98278.41;6171821;22;102914;-81
2021/04/10 01:00:59;;;;;;;4.63;2.10;;;;;;;11.38;54.80;98261.59;6167474;22;105511;-82
2021/04/10 01:03:26;;;;;;;3.43;1.70;;;;;;;11.68;53.35;98270.63;6171199;22;104719;-82
2021/04/10 01:05:53;;;;;;;2.87;2.20;;;;;;;11.76;53.34;98266.38;6171986;22;103703;-81
2021/04/10 01:08:21;;;;;;;3.93;1.70;;;;;;;11.74;53.51;98254.25;6172283;22;102602;-81
2021/04/10 01:10:49;;;;;;;4.13;1.80;;;;;;;11.78;53.16;98255.69;6170999;22;103984;-82
2021/04/10 01:13:26;;;;;;;4.80;1.93;;;;;;;11.84;53.33;98255.16;6171728;22;104645;-81
2021/04/10 01:16:01;;;;;;;1.73;1.40;;;;;;;11.84;53.35;98261.31;6143845;22;102829;-81
2021/04/10 01:18:38;;;;;;;4.30;1.80;;;;;;;11.83;53.47;98253.47;6119657;22;103153;-82
2021/04/10 01:21:17;;;;;;;4.00;1.73;;;;;;;11.83;53.42;98248.19;6146118;22;103657;-81
2021/04/10 01:24:16;;;;;;;2.07;1.73;;;;;;;11.77;54.37;98249.53;6172913;22;103628;-79
2021/04/10 01:27:01;;;;;;;4.13;1.97;;;;;;;11.73;54.53;98260.53;6173710;22;103050;-81
2021/04/10 01:29:32;;;;;;;6.80;2.13;;;;;;;11.72;54.38;98262.31;6171698;22;103385;-81
2021/04/10 01:32:01;;;;;;;3.57;2.03;;;;;;;11.70;54.26;98258.97;6173058;22;105282;-82
2021/04/10 01:34:33;;;;;;;2.90;1.70;;;;;;;11.71;54.47;98260.63;6146455;22;107167;-81
2021/04/10 01:37:08;;;;;;;2.17;1.10;;;;;;;11.74;53.51;98249.78;6171776;22;102532;-81
2021/04/10 01:39:41;;;;;;;3.00;1.67;;;;;;;11.78;53.09;98251.22;6146666;22;103020;-80
2021/04/10 01:42:13;;;;;;;3.10;1.77;;;;;;;11.82;52.51;98257.09;6144567;22;104904;-81
2021/04/10 01:44:42;;;;;;;4.90;2.00;;;;;;;11.88;52.14;98261.88;6145081;22;105439;-81
2021/04/10 01:47:14;;;;;;;2.63;1.30;;;;;;;11.85;52.49;98256.81;6173569;22;102920;-81
2021/04/10 01:49:44;;;;;;;3.33;1.40;;;;;;;11.94;51.62;98256.91;6172483;22;103213;-81
2021/04/10 01:52:13;;;;;;;3.10;1.33;;;;;;;12.03;50.99;98260.56;6145250;22;103715;-81
2021/04/10 01:54:41;;;;;;;1.73;1.30;;;;;;;12.10;51.17;98264.38;6172434;22;104861;-81
2021/04/10 01:57:10;;;;;;;2.47;1.20;;;;;;;12.15;50.97;98263.00;6173419;22;102906;-81
2021/04/10 01:59:42;;;;;;;3.13;1.40;;;;;;;12.11;50.75;98264.25;6146219;22;102960;-81
2021/04/10 02:02:18;;;;;;;4.13;1.53;;;;;;;12.18;50.69;98264.59;6143612;22;104227;-80
2021/04/10 02:04:50;;;;;;;4.70;1.50;;;;;;;12.18;50.46;98256.63;6172757;22;103665;-81
2021/04/10 02:07:23;;;;;;;4.30;1.63;;;;;;;12.19;50.65;98261.78;6170209;22;102995;-81
2021/04/10 02:09:54;;;;;;;3.97;1.20;;;;;;;12.25;50.24;98249.81;6145900;22;103187;-80
2021/04/10 02:12:47;;;;;;;2.93;1.37;;;;;;;12.25;50.26;98246.34;6163690;22;103842;-81
2021/04/10 02:15:26;;;;;;;2.47;1.30;;;;;;;12.28;50.15;98246.06;6146104;22;104043;-82
2021/04/10 02:17:58;;;;;;;2.73;1.43;;;;;;;12.30;50.61;98244.13;6145068;22;103075;-81
2021/04/10 02:20:28;;;;;;;3.40;1.50;;;;;;;12.28;50.76;98244.28;6145647;22;102798;-81
2021/04/10 02:22:56;;;;;;;1.80;1.00;;;;;;;12.30;50.84;98246.78;6145679;22;103923;-81
2021/04/10 02:25:35;;;;;;;2.87;1.40;;;;;;;12.25;50.70;98238.38;6173626;22;103599;-81
2021/04/10 02:28:03;;;;;;;3.20;1.17;;;;;;;12.20;50.74;98242.28;6170926;22;102947;-80
2021/04/10 02:30:31;;;;;;;2.00;1.33;;;;;;;12.24;50.58;98247.31;6172032;22;103145;-80
2021/04/10 02:33:03;;;;;;;3.53;1.30;;;;;;;12.21;50.61;98238.66;6143544;22;104808;-80
2021/04/10 02:35:42;;;;;;;3.83;1.20;;;;;;;12.21;50.58;98241.28;6146148;22;112651;-81
2021/04/10 02:38:12;;;;;;;3.03;1.40;;;;;;;12.21;50.70;98237.81;6146566;22;103069;-80
2021/04/10 02:40:44;;;;;;;1.67;1.17;;;;;;;12.20;50.88;98259.97;6172129;22;102892;-80
2021/04/10 02:43:18;;;;;;;2.77;1.03;;;;;;;12.19;51.21;98245.91;6144863;22;103811;-80
2021/04/10 02:45:48;;;;;;;3.73;1.57;;;;;;;12.19;51.20;98245.91;6144792;22;113731;-81
2021/04/10 02:48:23;;;;;;;3.23;1.50;;;;;;;12.18;51.25;98241.56;6172462;22;102757;-80
2021/04/10 02:50:56;;;;;;;2.03;1.03;;;;;;;12.19;50.93;98245.91;6147140;22;102739;-81
2021/04/10 02:53:26;;;;;;;2.37;1.20;;;;;;;12.17;51.53;98237.25;6171484;22;104008;-81
2021/04/10 02:55:57;;;;;;;3.97;1.37;;;;;;;12.21;50.95;98245.75;6172794;22;103591;-80
2021/04/10 02:58:27;;;;;;;3.00;1.30;;;;;;;12.19;50.64;98232.66;6171150;22;102950;-81
2021/04/10 03:00:57;;;;;;;5.33;1.57;;;;;;;12.27;51.05;98244.41;6144896;22;103228;-81
2021/04/10 03:03:32;;;;;;;1.93;1.20;;;;;;;12.27;51.24;98241.75;6172135;22;105960;-81
2021/04/10 03:06:03;;;;;;;3.87;1.50;;;;;;;12.27;51.22;98247.06;6172809;22;104752;-81
2021/04/10 03:08:31;;;;;;;3.77;1.50;;;;;;;12.31;51.05;98244.00;6145960;22;103200;-81
2021/04/10 03:11:03;;;;;;;3.53;1.30;;;;;;;12.25;51.02;98254.28;6146139;22;103092;-82
2021/04/10 03:13:33;;;;;;;4.33;1.70;;;;;;;12.28;50.88;98259.31;6171211;22;105177;-81
2021/04/10 03:16:11;;;;;;;3.03;1.40;;;;;;;12.28;51.16;98269.91;6146174;22;106115;-82
2021/04/10 03:18:44;;;;;;;1.83;1.20;;;;;;;12.32;51.03;98261.59;6145544;22;103094;-81
2021/04/10 03:21:13;;;;;;;2.93;1.30;;;;;;;12.28;51.51;98269.91;6145811;22;102645;-81
2021/04/10 03:23:48;;;;;;;2.03;1.10;;;;;;;12.26;51.63;98263.91;6144997;22;103689;-81
2021/04/10 03:26:19;;;;;;;2.77;1.60;;;;;;;12.29;51.55;98266.31;6171183;22;103678;-81
2021/04/10 03:28:50;;;;;;;2.37;1.37;;;;;;;12.21;52.54;98265.13;6121378;22;102937;-81
2021/04/10 03:31:18;;;;;;;3.60;1.20;;;;;;;12.14;53.42;98271.09;6172212;22;103012;-81
2021/04/10 03:33:47;;;;;;;3.97;1.37;;;;;;;12.18;53.37;98265.38;6146250;22;103891;-82
2021/04/10 03:36:14;;;;;;;2.73;1.50;;;;;;;12.07;54.37;98262.81;6172102;22;103999;-81
2021/04/10 03:38:43;;;;;;;5.87;1.40;;;;;;;12.01;57.56;98262.53;6172730;22;102952;-81
2021/04/10 03:41:13;;;;;;;3.00;1.50;;;;;;;11.99;58.90;98256.50;6172555;22;102784;-82
2021/04/10 03:43:41;;;;;;;3.73;1.40;;;;;;;11.91;58.36;98262.44;6145552;22;106574;-81
2021/04/10 03:46:08;;;;;;;2.70;1.10;;;;;;;11.98;57.58;98262.78;6145149;22;103752;-81
2021/04/10 03:48:36;;;;;;;5.20;1.57;;;;;;;11.93;57.98;98271.09;6144068;22;103148;-81
2021/04/10 03:51:08;;;;;;;4.27;1.53;;;;;;;11.88;58.55;98268.00;6171941;22;102904;-82
2021/04/10 03:53:53;;;;;;;2.70;1.30;;;;;;;11.84;59.11;98261.31;6146135;22;103879;-82
2021/04/10 03:56:23;;;;;;;3.40;1.40;;;;;;;11.83;59.26;98272.84;6143753;22;104876;-82
2021/04/10 03:58:51;;;;;;;2.43;1.30;;;;;;;11.72;59.71;98267.63;6145616;22;102659;-81
2021/04/10 04:01:30;;;;;;;1.33;1.23;;;;;;;11.79;59.69;98279.34;6171797;22;103059;-81
2021/04/10 04:03:58;;;;;;;2.80;1.50;;;;;;;11.76;59.71;98284.91;6172008;22;104094;-82
2021/04/10 04:06:26;;;;;;;4.40;1.10;;;;;;;11.81;59.86;98277.44;6145536;22;103712;-81
2021/04/10 04:08:53;;;;;;;2.27;1.23;;;;;;;11.78;59.88;98283.00;6172763;22;102959;-81
2021/04/10 04:11:20;;;;;;;3.90;1.43;;;;;;;11.69;60.07;98272.28;6172516;22;102703;-82
2021/04/10 04:13:47;;;;;;;3.83;1.27;;;;;;;11.66;60.30;98283.97;6171001;22;103094;-81
2021/04/10 04:16:14;;;;;;;4.90;1.20;;;;;;;11.66;60.48;98289.25;6145080;22;106144;-82
2021/04/10 04:18:41;;;;;;;4.37;1.60;;;;;;;11.61;60.37;98280.88;6170523;22;103146;-82
2021/04/10 04:21:08;;;;;;;1.37;1.20;;;;;;;11.61;60.71;98280.88;6171315;22;103023;-81
2021/04/10 04:23:36;;;;;;;2.20;1.20;;;;;;;11.54;60.45;98290.25;6170478;22;105300;-81
2021/04/10 04:26:04;;;;;;;5.13;1.27;;;;;;;11.63;60.48;98293.00;6172425;22;103619;-82
2021/04/10 04:28:31;;;;;;;2.53;1.40;;;;;;;11.65;60.40;98293.72;6172793;22;102935;-81
2021/04/10 04:30:59;;;;;;;3.13;1.07;;;;;;;11.48;60.79;98296.09;6172423;22;103048;-82
2021/04/10 04:33:26;;;;;;;2.50;1.20;;;;;;;11.50;61.28;98302.94;6172005;22;104103;-81
2021/04/10 04:35:53;;;;;;;1.73;1.17;;;;;;;11.51;63.14;98301.94;6145100;22;104103;-82
2021/04/10 04:38:21;;;;;;;2.60;1.30;;;;;;;11.31;65.22;98312.50;6171106;22;103143;-82
2021/04/10 04:40:48;;;;;;;1.97;1.10;;;;;;;11.30;66.19;98313.44;6172170;22;103111;-81
2021/04/10 04:43:15;;;;;;;4.10;1.20;;;;;;;11.17;64.59;98307.47;6171160;22;104869;-81
2021/04/10 04:45:42;;;;;;;3.30;1.07;;;;;;;11.24;64.26;98313.94;6171861;22;104615;-82
2021/04/10 04:48:10;;;;;;;2.63;1.33;;;;;;;11.12;64.62;98318.41;6145479;22;102505;-82
2021/04/10 04:50:37;;;;;;;2.17;1.10;;;;;;;11.13;64.15;98327.19;6171259;22;102932;-82
2021/04/10 04:53:04;;;;;;;4.53;1.40;;;;;;;11.08;63.50;98330.22;6171578;22;104950;-81
2021/04/10 04:55:31;;;;;;;2.77;1.20;;;;;;;11.16;63.64;98329.59;6172681;22;103678;-80
2021/04/10 04:57:59;;;;;;;1.53;1.03;;;;;;;11.20;63.57;98331.03;6145618;22;103072;-75
2021/04/10 05:00:27;;;;;;;2.23;1.10;;;;;;;11.03;63.44;98338.47;6144246;22;102978;-82
2021/04/10 05:02:54;;;;;;;2.10;0.93;;;;;;;11.07;63.52;98350.50;6170151;22;103813;-82
2021/04/10 05:05:21;;;;;;;2.23;1.10;;;;;;;11.12;64.03;98347.47;6171602;22;103666;-82
2021/04/10 05:07:49;;;;;;;3.40;1.30;;;;;;;10.96;63.85;98353.16;6172031;22;102473;-81
2021/04/10 05:10:16;;;;;;;2.47;1.30;;;;;;;10.96;64.21;98353.16;6172252;22;102927;-79
2021/04/10 05:12:43;;;;;;;4.70;1.50;;;;;;;10.88;64.52;98360.00;6171238;22;103423;-83
2021/04/10 05:15:12;;;;;;;2.67;1.40;;;;;;;10.78;66.59;98362.53;6171419;22;103611;-82
2021/04/10 05:17:39;;;;;;;1.53;1.20;;;;;;;10.89;66.72;98359.88;6172382;22;102449;-79
2021/04/10 05:20:08;;;;;;;3.30;1.50;;;;;;;10.84;66.98;98364.69;6171823;22;102884;-82
2021/04/10 05:22:35;;;;;;;2.03;1.20;;;;;;;10.81;66.69;98375.50;6171400;22;103890;-81
2021/04/10 05:25:03;;;;;;;2.60;1.60;;;;;;;10.92;66.71;98372.00;6171598;22;104794;-85
2021/04/10 05:27:30;;;;;;;3.13;1.47;;;;;;;10.78;66.79;98370.44;6170400;22;102603;-83
2021/04/10 05:29:57;;;;;;;3.33;1.40;;;;;;;10.83;66.20;98373.59;6171720;22;102737;-85
2021/04/10 05:32:28;;;;;;;1.20;1.10;;;;;;;10.88;66.29;98374.06;6170417;22;103915;-85
2021/04/10 05:34:56;;;;;;;2.90;1.50;;;;;;;10.94;65.61;98381.53;6144038;22;105806;-82
2021/04/10 05:37:23;;;;;;;2.20;1.40;;;;;;;10.90;65.87;98380.06;6144007;22;102857;-81
2021/04/10 05:39:50;;;;;;;1.27;1.10;;;;;;;10.95;65.67;98383.19;6171496;22;103122;-83
2021/04/10 05:42:17;;;;;;;2.97;1.60;;;;;;;10.99;65.48;98384.66;6169833;22;104939;-82
2021/04/10 05:44:44;;;;;;;2.50;1.30;;;;;;;11.05;65.58;98389.44;6170253;22;105887;-78
2021/04/10 05:47:12;;;;;;;1.70;1.30;;;;;;;10.99;65.24;98389.09;6171996;22;102783;-82
2021/04/10 05:49:40;;;;;;;2.23;1.30;;;;;;;11.15;64.89;98388.69;6144627;22;102691;-81
2021/04/10 05:52:08;;;;;;;3.03;1.50;;;;;;;11.03;64.95;98391.34;6169462;22;103800;-83
2021/04/10 05:54:35;;;;;;;3.73;1.60;;;;;;;11.00;65.29;98402.16;6169554;22;103719;-79
2021/04/10 05:57:02;;;;;;;2.03;1.03;;;;;;;11.17;64.77;98400.00;6171540;22;103119;-80
2021/04/10 05:59:29;;;;;;;1.87;1.27;;;;;;;11.21;64.73;98393.50;6170357;22;102923;-80
2021/04/10 06:01:57;;;;;;;1.40;1.20;;;;;;;11.07;63.97;98390.16;6144552;22;104776;-79
2021/04/10 06:04:24;;;;;;;3.17;1.50;;;;;;;11.28;63.76;98390.28;6172904;22;103636;-79
2021/04/10 06:06:53;;;;;;;3.17;1.30;;;;;;;11.30;63.22;98396.28;6171697;22;103147;-79
2021/04/10 06:09:20;;;;;;;1.83;1.10;;;;;;;11.31;63.09;98405.06;6146741;22;102975;-81
2021/04/10 06:11:47;;;;;;;4.30;1.30;;;;;;;11.26;62.39;98405.41;6173143;22;104151;-81
2021/04/10 06:14:14;;;;;;;3.93;1.50;;;;;;;11.39;62.47;98407.91;6146240;22;103723;-82
2021/04/10 06:16:41;;;;;;;1.47;1.00;;;;;;;11.41;62.56;98416.56;6143863;22;103057;-82
2021/04/10 06:19:09;;;;;;;1.90;1.03;;;;;;;11.45;62.56;98420.66;6172714;22;102948;-79
2021/04/10 06:21:36;;;;;;;5.10;1.60;;;;;;;11.43;62.74;98420.75;6145305;22;104699;-80
2021/04/10 06:24:04;;;;;;;2.10;1.20;;;;;;;11.38;62.52;98422.09;6173311;22;103347;-80
2021/04/10 06:26:31;;;;;;;2.70;1.30;;;;;;;11.30;62.80;98429.81;6145583;22;103020;-80
2021/04/10 06:28:59;;;;;;;3.13;1.30;;;;;;;11.34;63.12;98423.31;6172898;22;102537;-79
2021/04/10 06:31:26;;;;;;;2.83;1.60;;;;;;;11.24;63.09;98430.28;6172194;22;104195;-80
2021/04/10 06:33:53;;;;;;;2.30;1.30;;;;;;;11.25;63.39;98427.53;6173063;22;105249;-80
2021/04/10 06:36:20;;;;;;;3.00;1.40;;;;;;;11.15;63.32;98421.28;6171126;22;102887;-81
2021/04/10 06:38:47;;;;;;;2.43;1.37;;;;;;;11.19;63.76;98435.09;6172802;22;103147;-82
2021/04/10 06:41:15;;;;;;;2.97;1.23;;;;;;;11.21;63.75;98425.25;6171115;22;103928;-83
2021/04/10 06:43:43;;;;;;;3.13;1.30;;;;;;;11.32;63.64;98433.16;6172554;22;103605;-79
2021/04/10 06:46:11;;;;;;;2.27;1.50;;;;;;;11.27;63.60;98424.75;6172227;22;103099;-81
2021/04/10 06:48:39;;;;;;;2.03;1.00;;;;;;;11.39;63.48;98434.38;6172719;22;103049;-77
2021/04/10 06:51:07;;;;;;;1.73;1.10;;;;;;;11.38;63.16;98437.97;6172777;22;103123;-83
2021/04/10 06:53:41;;;;;;;1.40;1.03;;;;;;;11.42;63.21;98450.00;6172287;22;103109;-83
2021/04/10 06:56:09;;;;;;;2.67;1.30;;;;;;;11.40;63.59;98449.25;6172092;22;102901;-76
2021/04/10 06:58:47;;;;;;;2.60;1.00;;;;;;;11.51;63.45;98457.19;6172946;22;102581;-77
2021/04/10 07:01:17;;;;;;;2.40;1.43;;;;;;;11.40;63.62;98446.63;6170514;22;103739;-81
2021/04/10 07:03:45;;;;;;;2.93;1.40;;;;;;;11.48;63.76;98454.81;6171942;22;102938;-81
2021/04/10 07:06:15;;;;;;;2.70;1.40;;;;;;;11.44;63.74;98451.56;6170786;22;103000;-81
2021/04/10 07:08:42;;;;;;;3.23;1.60;;;;;;;11.47;63.59;98447.81;6172940;22;102679;-81
2021/04/10 07:11:10;;;;;;;2.97;1.40;;;;;;;11.43;64.13;98452.50;6145930;22;103803;-81
2021/04/10 07:13:38;;;;;;;1.77;1.40;;;;;;;11.55;63.89;98456.81;6172214;22;104180;-81
2021/04/10 07:16:09;;;;;;;2.07;1.50;;;;;;;11.49;63.78;98462.59;6173048;22;102589;-81
2021/04/10 07:18:36;;;;;;;3.23;1.40;;;;;;;11.48;64.56;98471.50;6146389;22;103229;-82
2021/04/10 07:21:19;;;;;;;2.30;1.30;;;;;;;11.55;63.69;98466.56;6172193;22;103931;-81
2021/04/10 07:23:50;;;;;;;4.00;1.50;;;;;;;11.51;63.98;98473.06;6173390;22;104152;-81
2021/04/10 07:26:19;;;;;;;4.03;1.47;;;;;;;11.56;63.97;98482.31;6171359;22;103085;-81
2021/04/10 07:28:48;;;;;;;1.17;1.07;;;;;;;11.60;63.86;98475.81;6173160;22;102809;-81
2021/04/10 07:31:17;;;;;;;2.33;1.50;;;;;;;11.74;63.60;98477.38;6170507;22;104386;-81
2021/04/10 07:33:57;;;;;;;2.07;1.30;;;;;;;11.76;63.66;98475.44;6173268;22;103963;-81
2021/04/10 07:36:25;;;;;;;3.00;1.30;;;;;;;11.53;64.27;98481.72;6146078;22;102988;-81
2021/04/10 07:38:57;;;;;;;1.57;1.23;;;;;;;11.65;63.58;98480.72;6173093;22;103138;-81
2021/04/10 07:41:25;;;;;;;5.40;1.40;;;;;;;11.76;64.04;98480.75;6119704;22;107127;-81
2021/04/10 07:43:54;;;;;;;1.90;1.57;;;;;;;11.65;63.96;98488.66;6172154;22;103542;-81
2021/04/10 07:46:26;;;;;;;4.27;1.57;;;;;;;11.50;64.33;98489.91;6171437;22;103138;-81
2021/04/10 07:49:05;;;;;;;1.90;1.03;;;;;;;11.45;64.54;98492.06;6173708;22;103007;-80
2021/04/10 07:51:34;;;;;;;3.70;1.43;;;;;;;11.47;64.35;98492.78;6172437;22;104082;-81
2021/04/10 07:54:21;;;;;;;2.00;1.20;;;;;;;11.54;64.58;98501.91;6172289;22;103543;-82
2021/04/10 07:56:55;;;;;;;3.83;1.30;;;;;;;11.63;64.32;98490.59;6171194;22;102880;-82
2021/04/10 07:59:24;;;;;;;1.93;1.40;;;;;;;11.68;64.56;98492.91;6172469;22;103086;-82
2021/04/10 08:01:51;;;;;;;1.93;1.10;;;;;;;11.65;65.00;98493.97;6171740;22;103282;-81
2021/04/10 08:04:20;;;;;;;4.23;1.40;;;;;;;11.59;65.00;98499.75;6172570;22;109882;-82
2021/04/10 08:06:57;;;;;;;2.33;1.40;;;;;;;11.72;64.66;98494.34;6172633;22;103055;-82
2021/04/10 08:09:35;;;;;;;3.93;1.07;;;;;;;11.78;64.71;98505.31;6173198;22;103577;-81
2021/04/10 08:12:06;;;;;;;2.20;1.20;;;;;;;11.73;64.25;98498.69;6171982;22;108646;-82
2021/04/10 08:14:47;;;;;;;2.97;1.20;;;;;;;11.69;64.33;98506.03;6145481;22;103900;-82
2021/04/10 08:17:32;;;;;;;3.97;1.63;;;;;;;11.55;64.60;98499.16;6172988;22;102828;-81
2021/04/10 08:20:17;;;;;;;1.83;1.37;;;;;;;11.81;63.98;98507.69;6145558;22;102665;-81
2021/04/10 08:22:45;;;;;;;2.53;1.70;;;;;;;11.81;64.15;98518.28;6169303;22;103622;-81
2021/04/10 08:25:13;;;;;;;2.90;1.10;;;;;;;11.82;63.93;98506.72;6145784;22;104265;-81
2021/04/10 08:27:41;;;;;;;7.03;1.67;;;;;;;11.65;65.51;98509.84;6172970;22;102599;-81
2021/04/10 08:30:15;;;;;;;2.80;1.40;;;;;;;11.56;66.49;98508.75;6172872;22;103025;-81
2021/04/10 08:32:42;;;;;;;3.47;1.20;;;;;;;11.64;67.19;98508.16;6171608;22;103682;-82
2021/04/10 08:35:09;;;;;;;2.00;1.03;;;;;;;11.70;66.96;98506.88;6172524;22;104163;-81
2021/04/10 08:37:37;;;;;;;2.53;1.50;;;;;;;11.78;67.88;98515.88;6171280;22;103051;-82
2021/04/10 08:40:06;;;;;;;1.30;1.17;;;;;;;11.71;67.63;98508.53;6173321;22;102877;-82
2021/04/10 08:42:35;;;;;;;1.50;1.40;;;;;;;11.90;67.29;98504.28;6169600;22;104304;-82
2021/04/10 08:45:04;;;;;;;2.47;1.23;;;;;;;11.85;68.07;98521.50;6144056;22;105216;-81
2021/04/10 08:47:32;;;;;;;1.10;1.00;;;;;;;11.75;68.39;98516.13;6170591;22;102509;-81
2021/04/10 08:49:59;;;;;;;2.10;1.00;;;;;;;11.63;68.38;98527.66;6145008;22;102732;-81
2021/04/10 08:52:31;;;;;;;1.00;0.90;;;;;;;11.60;68.54;98525.25;6171692;22;103047;-82
2021/04/10 08:55:03;;;;;;;1.50;1.10;;;;;;;11.52;69.22;98519.72;6172340;22;105228;-81
2021/04/10 08:57:37;;;;;;;1.97;0.90;;;;;;;11.52;68.64;98530.31;6142992;22;102933;-82
2021/04/10 09:00:18;;;;;;;2.27;1.17;;;;;;;11.58;69.68;98529.81;6170703;22;103022;-78
2021/04/10 09:02:54;;;;;;;1.13;0.97;;;;;;;11.55;69.02;98524.78;6169162;22;105705;-80
2021/04/10 09:05:22;;;;;;;0.97;0.80;;;;;;;11.65;69.08;98515.13;6171764;22;103679;-80
2021/04/10 09:08:07;;;;;;;2.43;1.00;;;;;;;11.81;68.97;98518.28;6172227;22;102957;-82
2021/04/10 09:10:55;;;;;;;2.10;1.10;;;;;;;11.99;68.49;98514.16;6171997;22;103349;-75
2021/04/10 09:13:39;;;;;;;1.70;1.03;;;;;;;11.99;67.97;98516.78;6169944;22;103817;-75
2021/04/10 09:16:38;;;;;;;1.10;1.00;;;;;;;11.98;67.63;98515.13;6144985;22;105337;-75
2021/04/10 09:19:16;;;;;;;2.30;1.00;;;;;;;11.99;68.00;98516.78;6170480;22;102635;-75
2021/04/10 09:21:47;;;;;;;1.67;1.40;;;;;;;12.01;67.66;98512.22;6114681;22;102508;-77
2021/04/10 09:24:19;;;;;;;2.03;1.13;;;;;;;12.14;66.00;98512.91;6115182;22;103319;-77
2021/04/10 09:27:20;;;;;;;3.03;1.70;;;;;;;12.19;65.26;98520.47;6114834;22;113313;-76
2021/04/10 09:29:50;;;;;;;2.53;1.40;;;;;;;12.25;66.60;98511.19;6051839;22;103025;-77
2021/04/10 09:32:35;;;;;;;2.30;1.10;;;;;;;12.23;65.92;98515.78;6114310;22;102852;-78
2021/04/10 09:35:05;;;;;;;1.27;1.17;;;;;;;12.27;65.27;98517.22;6140706;22;102815;-81
2021/04/10 09:37:54;;;;;;;2.13;1.20;;;;;;;12.14;65.34;98518.22;6142540;22;103930;-81
2021/04/10 09:40:40;;;;;;;5.63;1.40;;;;;;;12.10;65.15;98516.75;6132044;22;103098;-82
2021/04/10 09:43:07;;;;;;;1.00;0.90;;;;;;;12.14;64.44;98523.50;6112087;22;103106;-79
2021/04/10 09:45:36;;;;;;;2.63;0.80;;;;;;;12.34;63.44;98524.53;6142098;22;109996;-81
2021/04/10 09:48:32;;;;;;;2.93;1.20;;;;;;;12.40;63.10;98517.88;6142549;22;104130;-78
2021/04/10 09:51:13;;;;;;;2.07;1.00;;;;;;;12.21;63.07;98508.78;6113944;22;103143;-80
2021/04/10 09:53:45;;;;;;;2.07;1.13;;;;;;;12.35;63.94;98514.78;6140040;22;102760;-80
2021/04/10 09:56:14;;;;;;;2.03;1.00;;;;;;;12.46;63.69;98514.72;6111994;22;103949;-83
2021/04/10 09:58:53;;;;;;;1.60;1.13;;;;;;;12.59;62.54;98507.44;6139847;22;103822;-80
2021/04/10 10:01:22;;;;;;;3.50;1.00;;;;;;;12.57;62.36;98498.78;6136623;22;103146;-80
2021/04/10 10:03:51;;;;;;;1.53;1.00;;;;;;;12.42;61.73;98510.63;6140236;22;102959;-80
2021/04/10 10:06:24;;;;;;;1.50;1.20;;;;;;;12.59;62.04;98507.44;6138697;22;103733;-81
2021/04/10 10:08:52;;;;;;;1.60;1.10;;;;;;;12.72;61.97;98498.31;6140545;22;103692;-81
2021/04/10 10:11:20;;;;;;;1.20;0.90;;;;;;;12.60;61.35;98493.22;6113622;22;102849;-81
2021/04/10 10:13:48;;;;;;;2.43;1.00;;;;;;;12.62;61.31;98504.53;6140456;22;102882;-81
2021/04/10 10:16:25;;;;;;;1.53;1.00;;;;;;;12.80;60.59;98489.72;6139706;22;104981;-82
2021/04/10 10:18:52;;;;;;;1.57;1.20;;;;;;;12.66;61.06;98492.69;6112696;22;106632;-82
2021/04/10 10:21:23;;;;;;;1.30;1.10;;;;;;;12.78;60.70;98494.31;6165079;22;102912;-82
2021/04/10 10:23:54;;;;;;;1.37;0.90;;;;;;;12.84;60.63;98496.47;6171640;22;102898;-81
2021/04/10 10:26:23;;;;;;;1.60;1.03;;;;;;;12.84;60.05;98493.81;6170364;22;106079;-81
2021/04/10 10:28:53;;;;;;;1.40;0.80;;;;;;;13.01;60.13;98487.91;6169515;22;104114;-79
2021/04/10 10:31:23;;;;;;;1.17;0.70;;;;;;;13.24;59.99;98484.16;6167381;22;105414;-79
2021/04/10 10:33:52;;;;;;;1.10;1.00;;;;;;;13.30;59.52;98483.59;6170125;22;103450;-80
2021/04/10 10:36:24;;;;;;;3.83;1.30;;;;;;;13.12;58.94;98484.38;6168646;22;104213;-80
2021/04/10 10:38:52;;;;;;;1.50;1.07;;;;;;;13.28;59.13;98480.25;6168565;22;103132;-79
2021/04/10 10:41:19;;;;;;;4.63;1.33;;;;;;;13.29;58.92;98479.28;6169828;22;102875;-79
2021/04/10 10:43:46;;;;;;;1.30;1.10;;;;;;;13.40;58.33;98477.50;6143329;22;103091;-80
2021/04/10 10:46:18;;;;;;;1.40;1.10;;;;;;;13.42;58.10;98488.84;6168894;22;103922;-80
2021/04/10 10:48:52;;;;;;;1.30;0.80;;;;;;;13.70;57.64;98474.81;6168906;22;103325;-80
2021/04/10 10:51:27;;;;;;;2.17;0.87;;;;;;;13.77;57.76;98475.97;6169082;22;102701;-76
2021/04/10 10:53:59;;;;;;;1.20;1.10;;;;;;;13.74;57.99;98473.56;6170407;22;102692;-77
2021/04/10 10:56:27;;;;;;;3.90;1.00;;;;;;;13.55;58.46;98470.88;6115671;22;106607;-76
2021/04/10 10:58:57;;;;;;;1.63;1.20;;;;;;;13.86;56.90;98469.84;6169216;22;103801;-76
2021/04/10 11:01:26;;;;;;;4.40;1.10;;;;;;;14.13;56.82;98475.31;6166353;22;103102;-77
2021/04/10 11:04:00;;;;;;;1.87;0.80;;;;;;;14.36;56.97;98460.84;6169538;22;102935;-76
2021/04/10 11:06:31;;;;;;;3.57;1.07;;;;;;;14.52;54.81;98460.25;6168820;22;105133;-76
2021/04/10 11:09:02;;;;;;;1.10;1.00;;;;;;;14.82;54.58;98453.94;6141878;22;104236;-78
2021/04/10 11:11:33;;;;;;;3.67;1.20;;;;;;;14.89;54.72;98455.03;6169228;22;102753;-75
2021/04/10 11:14:06;;;;;;;1.03;0.90;;;;;;;14.82;53.36;98448.63;6169979;22;102450;-75
2021/04/10 11:16:41;;;;;;;3.27;1.00;;;;;;;14.89;53.44;98449.72;6168216;22;103915;-81
2021/04/10 11:19:09;;;;;;;2.60;0.83;;;;;;;15.04;54.32;98440.28;6168732;22;104641;-78
2021/04/10 11:21:36;;;;;;;3.80;1.00;;;;;;;15.05;53.64;98441.97;6134150;22;102785;-78
2021/04/10 11:24:13;;;;;;;1.00;0.90;;;;;;;15.12;53.87;98447.53;6161954;22;102724;-80
2021/04/10 11:26:46;;;;;;;1.20;0.90;;;;;;;15.16;53.70;98439.13;6166179;22;104234;-78
2021/04/10 11:29:15;;;;;;;1.90;1.10;;;;;;;15.23;53.40;98432.25;6139315;22;104461;-78
2021/04/10 11:31:42;;;;;;;2.80;1.10;;;;;;;15.47;52.97;98429.91;6139380;22;102810;-79
2021/04/10 11:34:31;;;;;;;1.73;1.10;;;;;;;15.35;52.76;98424.91;6140324;22;102679;-78
2021/04/10 11:36:59;;;;;;;1.53;0.90;;;;;;;15.53;52.72;98424.00;6144858;22;104296;-80
2021/04/10 11:47:24;;;;;;;1.97;1.10;;;;;;;15.59;51.97;98415.41;6162214;22;103281;-79
2021/04/10 11:49:52;;;;;;;3.07;1.00;;;;;;;16.09;51.81;98417.59;6164580;22;104835;-77